createdAt,value
2019-02-21T00:01:06.057Z,3.40
2019-02-21T00:03:39.018Z,3.40
2019-02-21T00:06:11.824Z,3.30
2019-02-21T00:08:44.788Z,3.20
2019-02-21T00:11:17.638Z,3.10
2019-02-21T00:13:50.477Z,3.00
2019-02-21T00:16:23.297Z,3.00
2019-02-21T00:18:56.116Z,2.90
2019-02-21T00:21:28.962Z,2.90
2019-02-21T00:24:01.776Z,2.90
2019-02-21T00:26:34.641Z,2.80
2019-02-21T00:29:07.471Z,2.80
2019-02-21T00:31:40.406Z,2.80
2019-02-21T00:34:13.267Z,2.70
2019-02-21T00:36:46.132Z,2.70
2019-02-21T00:39:18.979Z,2.70
2019-02-21T00:41:51.799Z,2.60
2019-02-21T00:44:24.657Z,2.60
2019-02-21T00:46:57.478Z,2.60
2019-02-21T00:49:30.289Z,2.60
2019-02-21T00:52:03.090Z,2.60
2019-02-21T00:54:35.902Z,2.50
2019-02-21T00:57:08.728Z,2.40
2019-02-21T00:59:41.566Z,2.30
2019-02-21T01:02:15.380Z,2.30
2019-02-21T01:04:48.199Z,2.20
2019-02-21T01:07:20.983Z,2.20
2019-02-21T01:09:53.788Z,2.20
2019-02-21T01:12:26.604Z,2.30
2019-02-21T01:14:59.669Z,2.30
2019-02-21T01:17:32.459Z,2.30
2019-02-21T01:20:05.937Z,2.40
2019-02-21T01:22:38.827Z,2.30
2019-02-21T01:25:11.622Z,2.40
2019-02-21T01:27:44.435Z,2.40
2019-02-21T01:30:17.270Z,2.40
2019-02-21T01:32:50.087Z,2.40
2019-02-21T01:35:22.878Z,2.40
2019-02-21T01:37:55.700Z,2.40
2019-02-21T01:40:29.649Z,2.40
2019-02-21T01:43:02.436Z,2.40
2019-02-21T01:45:35.256Z,2.30
2019-02-21T01:48:08.042Z,2.20
2019-02-21T01:50:40.861Z,2.10
2019-02-21T01:53:13.681Z,2.10
2019-02-21T01:55:46.531Z,2.10
2019-02-21T01:58:19.343Z,2.00
2019-02-21T02:00:52.193Z,2.00
2019-02-21T02:03:25.006Z,2.00
2019-02-21T02:05:58.886Z,1.90
2019-02-21T02:08:31.967Z,1.90
2019-02-21T02:11:04.897Z,1.90
2019-02-21T02:13:37.703Z,1.90
2019-02-21T02:16:10.522Z,1.90
2019-02-21T02:18:43.316Z,1.90
2019-02-21T02:21:16.130Z,1.90
2019-02-21T02:23:48.937Z,1.90
2019-02-21T02:26:22.858Z,1.90
2019-02-21T02:28:55.652Z,2.00
2019-02-21T02:31:28.490Z,2.10
2019-02-21T02:34:01.778Z,2.30
2019-02-21T02:36:34.602Z,2.50
2019-02-21T02:39:07.829Z,2.80
2019-02-21T02:41:40.974Z,3.10
2019-02-21T02:44:13.770Z,3.30
2019-02-21T02:46:46.600Z,3.30
2019-02-21T02:49:19.405Z,3.30
2019-02-21T02:51:52.237Z,3.40
2019-02-21T02:54:25.050Z,3.30
2019-02-21T02:56:57.925Z,3.30
2019-02-21T02:59:40.244Z,3.30
2019-02-21T03:02:05.449Z,3.30
2019-02-21T03:04:38.272Z,3.30
2019-02-21T03:07:11.073Z,3.30
2019-02-21T03:09:43.890Z,3.30
2019-02-21T03:12:16.719Z,3.30
2019-02-21T03:14:49.586Z,3.30
2019-02-21T03:17:22.330Z,3.30
2019-02-21T03:19:55.124Z,3.40
2019-02-21T03:22:27.932Z,3.40
2019-02-21T03:25:00.914Z,3.40
2019-02-21T03:27:33.707Z,3.50
2019-02-21T03:30:11.942Z,3.50
2019-02-21T03:32:42.263Z,3.50
2019-02-21T03:35:15.098Z,3.60
2019-02-21T03:37:47.879Z,3.60
2019-02-21T03:40:20.689Z,3.60
2019-02-21T03:42:53.494Z,3.70
2019-02-21T03:45:26.349Z,3.80
2019-02-21T03:47:59.141Z,3.80
2019-02-21T03:50:31.959Z,3.90
2019-02-21T03:53:04.779Z,3.80
2019-02-21T03:55:37.626Z,3.80
2019-02-21T03:58:10.414Z,3.80
2019-02-21T04:00:43.206Z,3.70
2019-02-21T04:03:15.991Z,3.60
2019-02-21T04:05:48.826Z,3.60
2019-02-21T04:08:22.619Z,3.50
2019-02-21T04:10:55.471Z,3.40
2019-02-21T04:13:28.302Z,3.30
2019-02-21T04:16:01.116Z,3.20
2019-02-21T04:18:33.920Z,3.10
2019-02-21T04:21:06.703Z,3.00
2019-02-21T04:23:39.510Z,2.90
2019-02-21T04:26:12.522Z,2.90
2019-02-21T04:28:45.892Z,2.80
2019-02-21T04:31:18.851Z,2.80
2019-02-21T04:33:51.661Z,2.70
2019-02-21T04:36:24.466Z,2.60
2019-02-21T04:38:57.282Z,2.60
2019-02-21T04:41:30.087Z,2.60
2019-02-21T04:44:03.892Z,2.60
2019-02-21T04:46:37.046Z,2.50
2019-02-21T04:49:09.848Z,2.50
2019-02-21T04:51:42.732Z,2.40
2019-02-21T04:54:15.543Z,2.30
2019-02-21T04:56:48.397Z,2.30
2019-02-21T04:59:21.199Z,2.30
2019-02-21T05:01:54.010Z,2.30
2019-02-21T05:04:26.918Z,2.40
2019-02-21T05:07:00.831Z,2.30
2019-02-21T05:09:33.642Z,2.30
2019-02-21T05:12:06.473Z,2.30
2019-02-21T05:14:39.257Z,2.30
2019-02-21T05:17:12.078Z,2.30
2019-02-21T05:19:44.879Z,2.30
2019-02-21T05:22:17.694Z,2.30
2019-02-21T05:24:50.496Z,2.20
2019-02-21T05:27:27.362Z,2.30
2019-02-21T05:30:00.354Z,2.30
2019-02-21T05:32:52.849Z,2.30
2019-02-21T05:35:37.696Z,2.30
2019-02-21T05:38:32.694Z,2.30
2019-02-21T05:41:21.114Z,2.30
2019-02-21T05:44:16.150Z,2.40
2019-02-21T05:47:11.219Z,2.40
2019-02-21T05:49:51.917Z,2.40
2019-02-21T05:52:40.419Z,2.40
2019-02-21T05:55:24.974Z,2.50
2019-02-21T05:58:08.971Z,2.50
2019-02-21T06:01:03.886Z,2.50
2019-02-21T06:03:51.110Z,2.50
2019-02-21T06:06:48.763Z,2.50
2019-02-21T06:09:41.206Z,2.60
2019-02-21T06:12:33.186Z,2.60
2019-02-21T06:15:29.698Z,2.60
2019-02-21T06:18:20.743Z,2.60
2019-02-21T06:21:12.930Z,2.60
2019-02-21T06:24:08.165Z,2.50
2019-02-21T06:27:00.990Z,2.60
2019-02-21T06:29:42.288Z,2.60
2019-02-21T06:32:15.081Z,2.60
2019-02-21T06:34:47.925Z,2.60
2019-02-21T06:37:20.764Z,2.60
2019-02-21T06:39:53.576Z,2.60
2019-02-21T06:42:26.445Z,2.60
2019-02-21T06:44:59.227Z,2.70
2019-02-21T06:47:32.076Z,2.70
2019-02-21T06:50:05.289Z,2.80
2019-02-21T06:52:40.502Z,2.80
2019-02-21T06:55:12.857Z,2.80
2019-02-21T06:57:45.710Z,3.00
2019-02-21T07:00:18.519Z,3.10
2019-02-21T07:02:51.391Z,3.20
2019-02-21T07:05:24.191Z,3.20
2019-02-21T07:07:57.041Z,3.20
2019-02-21T07:10:29.828Z,3.20
2019-02-21T07:13:02.732Z,3.30
2019-02-21T07:15:35.545Z,3.30
2019-02-21T07:18:11.025Z,3.30
2019-02-21T07:20:44.340Z,3.40
2019-02-21T07:23:17.199Z,3.30
2019-02-21T07:26:09.618Z,3.50
2019-02-21T07:28:42.468Z,3.80
2019-02-21T07:31:15.242Z,4.00
2019-02-21T07:33:48.439Z,4.00
2019-02-21T07:36:21.318Z,4.10
2019-02-21T07:39:08.351Z,4.30
2019-02-21T07:41:28.892Z,4.50
2019-02-21T07:44:11.744Z,4.70
2019-02-21T07:46:36.503Z,4.90
2019-02-21T07:49:09.384Z,5.20
2019-02-21T07:51:43.314Z,5.20
2019-02-21T07:54:16.118Z,5.20
2019-02-21T07:56:48.936Z,5.20
2019-02-21T07:59:21.772Z,5.20
2019-02-21T08:01:54.596Z,5.20
2019-02-21T08:04:27.430Z,5.30
2019-02-21T08:07:00.226Z,5.30
2019-02-21T08:09:33.079Z,5.40
2019-02-21T08:12:05.902Z,5.40
2019-02-21T08:14:38.746Z,5.40
2019-02-21T08:17:11.685Z,5.40
2019-02-21T08:19:44.533Z,5.40
2019-02-21T08:22:17.349Z,5.50
2019-02-21T08:24:50.195Z,5.60
2019-02-21T08:27:23.038Z,5.60
2019-02-21T08:29:55.834Z,5.70
2019-02-21T08:32:33.287Z,5.90
2019-02-21T08:35:06.954Z,5.80
2019-02-21T08:37:39.941Z,5.90
2019-02-21T08:40:12.765Z,6.00
2019-02-21T08:42:45.637Z,6.00
2019-02-21T08:45:18.488Z,6.00
2019-02-21T08:47:51.304Z,6.10
2019-02-21T08:50:24.160Z,6.20
2019-02-21T08:52:56.975Z,6.20
2019-02-21T08:55:29.823Z,6.30
2019-02-21T08:58:02.708Z,6.50
2019-02-21T09:00:35.587Z,6.50
2019-02-21T09:03:08.382Z,6.60
2019-02-21T09:05:41.218Z,6.70
2019-02-21T09:08:16.535Z,6.60
2019-02-21T09:10:48.735Z,6.60
2019-02-21T09:13:23.768Z,6.80
2019-02-21T09:15:56.344Z,6.90
2019-02-21T09:18:29.166Z,7.20
2019-02-21T09:21:01.983Z,7.30
2019-02-21T09:23:34.835Z,7.40
2019-02-21T09:26:07.705Z,7.40
2019-02-21T09:28:40.553Z,7.20
2019-02-21T09:31:13.424Z,7.10
2019-02-21T09:33:46.348Z,7.10
2019-02-21T09:36:19.162Z,6.90
2019-02-21T09:38:51.993Z,6.90
2019-02-21T09:41:24.817Z,6.80
2019-02-21T09:43:57.752Z,6.70
2019-02-21T09:46:30.617Z,6.80
2019-02-21T09:49:03.487Z,6.90
2019-02-21T09:51:36.725Z,7.10
2019-02-21T09:54:09.565Z,7.40
2019-02-21T09:56:52.302Z,7.70
2019-02-21T09:59:17.159Z,8.00
2019-02-21T10:01:50.029Z,8.30
2019-02-21T10:04:31.911Z,8.50
2019-02-21T10:06:57.571Z,8.60
2019-02-21T10:09:30.373Z,8.60
2019-02-21T10:12:03.225Z,8.60
2019-02-21T10:14:36.064Z,8.50
2019-02-21T10:17:08.890Z,8.30
2019-02-21T10:19:41.703Z,8.00
2019-02-21T10:22:14.526Z,7.90
2019-02-21T10:24:47.338Z,7.80
2019-02-21T10:27:20.175Z,7.70
2019-02-21T10:29:53.114Z,7.70
2019-02-21T10:32:25.931Z,7.70
2019-02-21T10:34:58.751Z,7.80
2019-02-21T10:37:31.592Z,8.10
2019-02-21T10:40:06.050Z,8.20
2019-02-21T10:42:38.868Z,8.60
2019-02-21T10:45:15.141Z,8.70
2019-02-21T10:47:47.945Z,8.80
2019-02-21T10:50:20.880Z,8.80
2019-02-21T10:52:53.783Z,9.00
2019-02-21T10:55:26.620Z,8.90
2019-02-21T10:57:59.547Z,8.80
2019-02-21T11:00:32.445Z,8.90
2019-02-21T11:03:05.444Z,9.00
2019-02-21T11:05:38.258Z,9.30
2019-02-21T11:08:11.079Z,9.30
2019-02-21T11:10:43.893Z,9.20
2019-02-21T11:13:16.731Z,9.20
2019-02-21T11:15:50.717Z,9.20
2019-02-21T11:18:23.519Z,9.40
2019-02-21T11:20:56.346Z,9.40
2019-02-21T11:23:29.165Z,9.60
2019-02-21T11:26:02.253Z,9.70
2019-02-21T11:28:35.068Z,9.80
2019-02-21T11:31:08.891Z,9.90
2019-02-21T11:33:41.715Z,10.00
2019-02-21T11:36:14.551Z,10.00
2019-02-21T11:38:47.379Z,10.00
2019-02-21T11:41:20.183Z,10.10
2019-02-21T11:43:53.007Z,10.10
2019-02-21T11:46:25.837Z,10.20
2019-02-21T11:48:58.641Z,10.10
2019-02-21T11:51:31.486Z,10.20
2019-02-21T11:54:04.291Z,10.10
2019-02-21T11:56:37.109Z,10.20
2019-02-21T11:59:11.056Z,10.30
2019-02-21T12:01:43.919Z,10.30
2019-02-21T12:04:16.850Z,10.00
2019-02-21T12:06:49.645Z,9.90
2019-02-21T12:09:22.475Z,9.80
2019-02-21T12:11:55.297Z,9.80
2019-02-21T12:14:28.108Z,9.80
2019-02-21T12:17:00.926Z,9.70
2019-02-21T12:19:33.777Z,9.80
2019-02-21T12:22:06.658Z,9.90
2019-02-21T12:24:39.461Z,10.00
2019-02-21T12:27:12.307Z,10.10
2019-02-21T12:29:45.124Z,10.40
2019-02-21T12:32:17.998Z,10.70
2019-02-21T12:34:50.810Z,10.80
2019-02-21T12:37:23.672Z,10.90
2019-02-21T12:39:56.482Z,10.90
2019-02-21T12:42:29.395Z,10.80
2019-02-21T12:45:02.215Z,10.80
2019-02-21T12:47:36.296Z,10.90
2019-02-21T12:50:09.268Z,11.00
2019-02-21T12:52:42.134Z,11.10
2019-02-21T12:55:26.495Z,11.20
2019-02-21T12:57:49.747Z,11.00
2019-02-21T13:00:22.634Z,11.00
2019-02-21T13:02:55.481Z,10.70
2019-02-21T13:05:28.384Z,10.90
2019-02-21T13:08:01.231Z,10.80
2019-02-21T13:10:34.982Z,10.70
2019-02-21T13:13:07.999Z,10.60
2019-02-21T13:15:40.798Z,10.50
2019-02-21T13:18:16.132Z,10.40
2019-02-21T13:20:48.450Z,10.30
2019-02-21T13:23:21.595Z,10.20
2019-02-21T13:25:54.418Z,10.10
2019-02-21T13:28:27.258Z,10.30
2019-02-21T13:31:00.122Z,10.40
2019-02-21T13:33:32.898Z,10.60
2019-02-21T13:36:06.244Z,10.80
2019-02-21T13:38:39.104Z,11.00
2019-02-21T13:41:11.920Z,11.20
2019-02-21T13:43:44.776Z,11.20
2019-02-21T13:46:18.806Z,11.10
2019-02-21T13:48:51.691Z,11.10
2019-02-21T13:51:24.465Z,10.90
2019-02-21T13:53:57.309Z,11.00
2019-02-21T13:56:30.175Z,11.00
2019-02-21T13:59:03.024Z,11.10
2019-02-21T14:01:35.907Z,11.20
2019-02-21T14:04:08.791Z,11.20
2019-02-21T14:06:41.633Z,11.30
2019-02-21T14:09:14.546Z,11.40
2019-02-21T14:11:47.359Z,11.30
2019-02-21T14:14:20.265Z,11.40
2019-02-21T14:16:53.106Z,11.40
2019-02-21T14:19:25.973Z,11.50
2019-02-21T14:21:58.830Z,11.50
2019-02-21T14:24:36.946Z,11.60
2019-02-21T14:27:08.730Z,11.70
2019-02-21T14:29:41.247Z,11.80
2019-02-21T14:32:14.056Z,11.80
2019-02-21T14:34:46.887Z,11.80
2019-02-21T14:37:19.704Z,11.90
2019-02-21T14:39:52.549Z,12.00
2019-02-21T14:42:25.374Z,12.10
2019-02-21T14:44:58.197Z,12.00
2019-02-21T14:47:31.023Z,12.00
2019-02-21T14:50:05.701Z,11.90
2019-02-21T14:52:38.597Z,11.90
2019-02-21T14:55:12.967Z,11.90
2019-02-21T14:57:45.800Z,11.90
2019-02-21T15:00:20.487Z,12.00
2019-02-21T15:02:54.409Z,12.00
2019-02-21T15:05:27.280Z,12.00
2019-02-21T15:08:00.149Z,12.10
2019-02-21T15:10:32.972Z,12.20
2019-02-21T15:13:05.948Z,12.30
2019-02-21T15:15:38.798Z,12.30
2019-02-21T15:18:11.658Z,12.30
2019-02-21T15:20:44.503Z,12.40
2019-02-21T15:23:17.459Z,12.40
2019-02-21T15:25:50.287Z,12.40
2019-02-21T15:28:23.289Z,12.50
2019-02-21T15:30:56.128Z,12.50
2019-02-21T15:33:28.962Z,12.40
2019-02-21T15:36:01.785Z,12.40
2019-02-21T15:38:34.758Z,12.40
2019-02-21T15:41:07.566Z,12.30
2019-02-21T15:43:40.430Z,12.30
2019-02-21T15:46:13.277Z,12.20
2019-02-21T15:48:46.066Z,12.20
2019-02-21T15:51:18.972Z,12.10
2019-02-21T15:53:52.006Z,12.10
2019-02-21T15:56:24.856Z,12.10
2019-02-21T15:58:57.756Z,12.10
2019-02-21T16:01:30.564Z,12.00
2019-02-21T16:04:03.383Z,12.00
2019-02-21T16:06:38.052Z,11.90
2019-02-21T16:09:16.231Z,11.80
2019-02-21T16:11:45.831Z,11.80
2019-02-21T16:14:18.633Z,11.80
2019-02-21T16:16:51.529Z,11.70
2019-02-21T16:19:24.412Z,11.70
2019-02-21T16:21:57.310Z,11.70
2019-02-21T16:24:30.100Z,11.60
2019-02-21T16:27:02.918Z,11.60
2019-02-21T16:29:35.808Z,11.60
2019-02-21T16:32:08.624Z,11.50
2019-02-21T16:34:41.495Z,11.50
2019-02-21T16:37:14.435Z,11.40
2019-02-21T16:39:47.394Z,11.40
2019-02-21T16:42:20.236Z,11.30
2019-02-21T16:44:53.133Z,11.30
2019-02-21T16:47:25.975Z,11.30
2019-02-21T16:49:58.845Z,11.30
2019-02-21T16:52:31.826Z,11.20
2019-02-21T16:55:08.725Z,11.20
2019-02-21T16:57:41.332Z,11.20
2019-02-21T17:00:16.046Z,11.10
2019-02-21T17:02:49.001Z,11.00
2019-02-21T17:05:21.930Z,10.90
2019-02-21T17:07:54.823Z,10.90
2019-02-21T17:10:27.698Z,10.90
2019-02-21T17:13:00.637Z,10.90
2019-02-21T17:15:33.499Z,10.90
2019-02-21T17:18:06.387Z,10.80
2019-02-21T17:20:39.311Z,10.80
2019-02-21T17:23:22.239Z,10.70
2019-02-21T17:25:46.974Z,10.70
2019-02-21T17:28:19.832Z,10.60
2019-02-21T17:30:52.694Z,10.60
2019-02-21T17:33:25.606Z,10.50
2019-02-21T17:35:58.452Z,10.50
2019-02-21T17:38:31.303Z,10.50
2019-02-21T17:41:04.211Z,10.40
2019-02-21T17:43:37.116Z,10.40
2019-02-21T17:46:10.045Z,10.40
2019-02-21T17:48:42.883Z,10.30
2019-02-21T17:51:15.745Z,10.30
2019-02-21T17:53:48.636Z,10.30
2019-02-21T17:56:21.540Z,10.20
2019-02-21T17:58:54.405Z,10.20
2019-02-21T18:01:27.329Z,10.20
2019-02-21T18:04:00.311Z,10.10
2019-02-21T18:06:33.247Z,10.10
2019-02-21T18:09:07.029Z,10.00
2019-02-21T18:11:40.995Z,9.90
2019-02-21T18:14:13.864Z,9.90
2019-02-21T18:16:46.687Z,9.90
2019-02-21T18:19:19.740Z,9.90
2019-02-21T18:21:52.621Z,9.80
2019-02-21T18:24:25.556Z,9.80
2019-02-21T18:26:58.488Z,9.70
2019-02-21T18:29:31.390Z,9.70
2019-02-21T18:32:06.186Z,9.60
2019-02-21T18:34:39.068Z,9.50
2019-02-21T18:37:11.971Z,9.50
2019-02-21T18:39:44.872Z,9.50
2019-02-21T18:42:17.902Z,9.60
2019-02-21T18:44:50.784Z,9.60
2019-02-21T18:47:23.686Z,9.60
2019-02-21T18:49:56.643Z,9.60
2019-02-21T18:52:29.646Z,9.50
2019-02-21T18:55:03.384Z,9.50
2019-02-21T18:57:36.501Z,9.50
2019-02-21T19:00:12.040Z,9.50
2019-02-21T19:02:46.838Z,9.60
2019-02-21T19:05:19.800Z,9.50
2019-02-21T19:08:00.837Z,9.60
2019-02-21T19:10:27.877Z,9.60
2019-02-21T19:13:00.783Z,9.60
2019-02-21T19:15:33.711Z,9.50
2019-02-21T19:18:06.726Z,9.50
2019-02-21T19:20:40.836Z,9.40
2019-02-21T19:23:13.814Z,9.40
2019-02-21T19:25:46.688Z,9.40
2019-02-21T19:28:19.674Z,9.40
2019-02-21T19:31:05.153Z,9.40
2019-02-21T19:33:38.174Z,9.40
2019-02-21T19:36:11.173Z,9.40
2019-02-21T19:38:44.178Z,9.40
2019-02-21T19:41:17.096Z,9.40
2019-02-21T19:43:50.262Z,9.40
2019-02-21T19:46:23.142Z,9.40
2019-02-21T19:48:56.052Z,9.40
2019-02-21T19:51:28.919Z,9.30
2019-02-21T19:54:01.841Z,9.30
2019-02-21T19:56:34.733Z,9.30
2019-02-21T19:59:07.942Z,9.20
2019-02-21T20:01:41.038Z,9.20
2019-02-21T20:04:13.993Z,9.10
2019-02-21T20:06:46.878Z,9.10
2019-02-21T20:09:20.053Z,9.00
2019-02-21T20:11:53.019Z,9.00
2019-02-21T20:14:26.034Z,8.90
2019-02-21T20:16:58.907Z,8.80
2019-02-21T20:19:31.757Z,8.80
2019-02-21T20:22:04.815Z,8.80
2019-02-21T20:24:37.835Z,8.80
2019-02-21T20:27:10.913Z,8.80
2019-02-21T20:29:43.831Z,8.80
2019-02-21T20:32:16.807Z,8.80
2019-02-21T20:34:49.806Z,8.80
2019-02-21T20:37:22.761Z,8.80
2019-02-21T20:39:55.690Z,8.80
2019-02-21T20:42:31.319Z,8.80
2019-02-21T20:45:06.065Z,8.80
2019-02-21T20:47:39.114Z,8.90
2019-02-21T20:50:12.352Z,8.90
2019-02-21T20:52:45.341Z,9.00
2019-02-21T20:55:18.442Z,9.00
2019-02-21T20:57:51.571Z,9.00
2019-02-21T21:00:24.445Z,9.00
2019-02-21T21:02:58.223Z,9.00
2019-02-21T21:05:31.307Z,9.10
2019-02-21T21:08:04.312Z,9.10
2019-02-21T21:10:37.336Z,9.00
2019-02-21T21:13:10.237Z,9.00
2019-02-21T21:15:43.269Z,9.00
2019-02-21T21:18:16.220Z,9.00
2019-02-21T21:20:49.147Z,8.90
2019-02-21T21:23:22.108Z,8.80
2019-02-21T21:25:54.988Z,8.80
2019-02-21T21:28:27.853Z,8.70
2019-02-21T21:31:00.864Z,8.70
2019-02-21T21:33:34.938Z,8.70
2019-02-21T21:36:08.987Z,8.80
2019-02-21T21:38:41.855Z,8.80
2019-02-21T21:41:14.896Z,8.80
2019-02-21T21:43:47.779Z,8.80
2019-02-21T21:46:20.630Z,8.90
2019-02-21T21:48:53.524Z,9.00
2019-02-21T21:51:26.386Z,9.10
2019-02-21T21:53:59.276Z,9.30
2019-02-21T21:56:32.400Z,9.20
2019-02-21T21:59:05.309Z,9.30
2019-02-21T22:01:38.361Z,9.30
2019-02-21T22:04:11.311Z,9.30
2019-02-21T22:06:44.234Z,9.30
2019-02-21T22:09:18.225Z,9.30
2019-02-21T22:11:51.248Z,9.30
2019-02-21T22:14:24.123Z,9.20
2019-02-21T22:16:57.062Z,9.20
2019-02-21T22:19:30.999Z,9.40
2019-02-21T22:22:05.682Z,9.40
2019-02-21T22:24:38.605Z,9.50
2019-02-21T22:27:11.493Z,9.50
2019-02-21T22:29:44.340Z,9.50
2019-02-21T22:32:17.264Z,9.60
2019-02-21T22:34:51.612Z,9.70
2019-02-21T22:37:24.665Z,9.40
2019-02-21T22:39:57.577Z,9.10
2019-02-21T22:42:30.625Z,9.00
2019-02-21T22:45:05.519Z,9.00
2019-02-21T22:47:38.540Z,9.00
2019-02-21T22:50:13.383Z,8.90
2019-02-21T22:52:46.297Z,9.00
2019-02-21T22:55:19.242Z,9.00
2019-02-21T22:57:52.067Z,9.00
2019-02-21T23:00:58.364Z,9.10
2019-02-21T23:03:57.605Z,9.00
2019-02-21T23:07:19.345Z,9.00
2019-02-21T23:09:52.175Z,9.00
2019-02-21T23:12:25.129Z,8.90
2019-02-21T23:14:57.956Z,8.80
2019-02-21T23:17:30.854Z,8.70
2019-02-21T23:20:04.948Z,8.70
2019-02-21T23:22:38.798Z,8.70
2019-02-21T23:25:11.643Z,8.60
2019-02-21T23:27:44.633Z,8.40
2019-02-21T23:30:17.562Z,8.30
2019-02-21T23:32:50.398Z,8.20
2019-02-21T23:35:23.240Z,8.20
2019-02-21T23:37:56.113Z,8.20
2019-02-21T23:40:29.953Z,8.30
2019-02-21T23:43:02.839Z,8.40
2019-02-21T23:45:35.664Z,8.40
2019-02-21T23:48:08.523Z,8.40
2019-02-21T23:50:41.374Z,8.40
2019-02-21T23:53:14.227Z,8.50
2019-02-21T23:55:47.049Z,8.60
2019-02-21T23:58:19.901Z,8.60
